메인 페이지
METAR-TAF:

METAR-TAF

공항 :

상파울루 콩고냐스 공항

상파울루, 상파울루, 브라질

위도: 23-37S, 경도: 046-39W, 고도: 803m

현재 날씨관측

예보는 38분 전, 18:00시(UTC)에 발표되었습니다.
5kt남남동풍과 남서풍을 오가는
온도 23°C
습도 41%
기압 1021 hPa
시정 10km 이상
고도 4500ft 상공 구름 보통
고도 6700ft 상공 구름 많음

METAR: SBSP 221800Z 19005KT 150V230 9999 SCT045 BKN067 23/09 Q1021

시각: 15:38 (18:38 UTC)

예보

예보는 2 시간 22분 전, 16:16시(UTC)에 발표되었습니다.
예보 대상 시간: 22일 18시부터 23일 18시까지 (UTC)
서북서7kt
시정 10km 이상
1500m 미만 상공 구름 및 적란운 없음
전환 중
22일 20시부터 22일 22시까지 (UTC)
서북서4kt
전환 중
23일 01시부터 23일 03시까지 (UTC)
북북서2kt
시정: 8000m
확률 30%
23일 08시부터 23일 11시까지 (UTC)
시정: 4000m
박무
전환 중
23일 11시부터 23일 13시까지 (UTC)
북북서10kt

TAF: SBSP 221616Z 2218/2318 30007KT CAVOK TX25/2218Z TN17/2306Z BECMG 2220/2222 29004KT BECMG 2301/2303 33002KT 8000 NSC PROB30 2308/2311 4000 BR NSC BECMG 2311/2313 33010KT RMK PGQ

4,000개 이상의 공항 관측 자료 및 예보 (METAR 및 TAF 보고).

지도상에서 검색 가능한 기상관측소가 노란 점과 빨간 점으로 표시되어 있습니다.

기상관측소 명을 보려면 표시 위로 마우스를 이동하세요.

날씨 관측과 예보를 보려면 클릭하세요.

지도 변경 : 확대하려면 엑스 표시가 있는 녹색 버튼, 축소하려면 빼기 표시가 있는 녹색 버튼, 다음 페이지의 지도를 보려면 녹색 화살표를 클릭하세요.


METAR-TAF: